createdAt,value
2017-12-12T00:01:11.438Z,8.26
2017-12-12T00:02:25.171Z,8.35
2017-12-12T00:03:39.178Z,8.31
2017-12-12T00:04:52.967Z,8.38
2017-12-12T00:06:06.548Z,8.36
2017-12-12T00:07:20.329Z,8.35
2017-12-12T00:08:34.616Z,8.34
2017-12-12T00:09:49.002Z,8.34
2017-12-12T00:11:03.054Z,8.35
2017-12-12T00:12:21.740Z,8.34
2017-12-12T00:13:36.402Z,8.35
2017-12-12T00:14:50.753Z,8.27
2017-12-12T00:16:04.427Z,8.35
2017-12-12T00:17:18.991Z,8.34
2017-12-12T00:18:33.666Z,8.36
2017-12-12T00:19:47.698Z,8.34
2017-12-12T00:21:01.802Z,8.31
2017-12-12T00:22:15.321Z,8.28
2017-12-12T00:23:29.784Z,8.23
2017-12-12T00:24:47.760Z,8.23
2017-12-12T00:26:01.592Z,8.18
2017-12-12T00:27:15.096Z,8.21
2017-12-12T00:28:28.935Z,8.18
2017-12-12T00:29:42.710Z,8.26
2017-12-12T00:30:56.478Z,8.21
2017-12-12T00:32:10.790Z,8.27
2017-12-12T00:33:25.148Z,8.16
2017-12-12T00:34:39.330Z,8.18
2017-12-12T00:35:53.233Z,8.11
2017-12-12T00:37:07.442Z,8.13
2017-12-12T00:38:22.022Z,8.2
2017-12-12T00:39:36.166Z,8.13
2017-12-12T00:40:50.077Z,8.14
2017-12-12T00:42:04.415Z,8.17
2017-12-12T00:43:19.113Z,8.17
2017-12-12T00:44:33.598Z,8.14
2017-12-12T00:45:47.693Z,8.11
2017-12-12T00:47:03.047Z,8.09
2017-12-12T00:48:18.531Z,8.16
2017-12-12T00:49:32.605Z,8.05
2017-12-12T00:50:47.630Z,8.13
2017-12-12T00:52:02.612Z,8.06
2017-12-12T00:53:18.252Z,8.08
2017-12-12T00:54:34.004Z,8.02
2017-12-12T00:55:49.544Z,8.08
2017-12-12T00:57:05.596Z,8.05
2017-12-12T00:58:22.115Z,8.05
2017-12-12T00:59:38.831Z,7.98
2017-12-12T01:00:53.318Z,8.08
2017-12-12T01:02:07.472Z,8.03
2017-12-12T01:03:21.959Z,8.09
2017-12-12T01:04:36.054Z,7.98
2017-12-12T01:05:50.287Z,7.99
2017-12-12T01:07:03.856Z,8.01
2017-12-12T01:08:18.951Z,7.93
2017-12-12T01:09:33.075Z,7.93
2017-12-12T01:10:46.757Z,8.02
2017-12-12T01:12:01.297Z,7.95
2017-12-12T01:13:15.925Z,7.85
2017-12-12T01:14:30.947Z,7.93
2017-12-12T01:15:44.509Z,7.96
2017-12-12T01:16:58.484Z,7.91
2017-12-12T01:18:12.576Z,7.95
2017-12-12T01:19:26.439Z,7.96
2017-12-12T01:20:40.183Z,8.06
2017-12-12T01:21:53.876Z,8.02
2017-12-12T01:23:07.395Z,7.95
2017-12-12T01:24:21.291Z,7.95
2017-12-12T01:25:36.402Z,7.9
2017-12-12T01:26:50.697Z,7.99
2017-12-12T01:28:05.215Z,7.96
2017-12-12T01:29:18.893Z,7.95
2017-12-12T01:30:33.064Z,7.98
2017-12-12T01:31:47.463Z,7.83
2017-12-12T01:33:01.467Z,7.91
2017-12-12T01:34:15.249Z,7.8
2017-12-12T01:35:29.825Z,7.83
2017-12-12T01:36:45.229Z,7.87
2017-12-12T01:37:59.875Z,7.83
2017-12-12T01:39:14.016Z,7.96
2017-12-12T01:40:28.026Z,7.87
2017-12-12T01:41:42.666Z,7.78
2017-12-12T01:42:57.521Z,7.87
2017-12-12T01:44:11.594Z,7.81
2017-12-12T01:45:26.307Z,7.85
2017-12-12T01:46:40.316Z,7.81
2017-12-12T01:47:54.344Z,7.66
2017-12-12T01:49:08.998Z,7.66
2017-12-12T01:50:22.847Z,7.66
2017-12-12T01:51:36.833Z,7.69
2017-12-12T01:52:50.647Z,7.75
2017-12-12T01:54:04.422Z,7.66
2017-12-12T01:55:18.566Z,7.74
2017-12-12T01:56:32.203Z,7.69
2017-12-12T01:57:46.493Z,7.66
2017-12-12T01:59:00.435Z,7.62
2017-12-12T02:00:14.698Z,7.62
2017-12-12T02:01:28.715Z,7.59
2017-12-12T02:02:42.968Z,7.48
2017-12-12T02:03:56.494Z,7.58
2017-12-12T02:05:10.330Z,7.47
2017-12-12T02:06:24.386Z,7.33
2017-12-12T02:07:38.009Z,7.31
2017-12-12T02:08:52.054Z,7.28
2017-12-12T02:10:06.816Z,7.28
2017-12-12T02:11:21.162Z,7.11
2017-12-12T02:12:35.131Z,7.04
2017-12-12T02:13:48.665Z,7.05
2017-12-12T02:15:02.414Z,6.95
2017-12-12T02:16:16.311Z,6.83
2017-12-12T02:17:29.820Z,6.78
2017-12-12T02:18:43.588Z,6.75
2017-12-12T02:19:57.363Z,6.7
2017-12-12T02:21:11.068Z,6.6
2017-12-12T02:22:25.089Z,6.6
2017-12-12T02:23:45.174Z,6.56
2017-12-12T02:24:59.615Z,6.52
2017-12-12T02:26:13.562Z,6.36
2017-12-12T02:27:27.204Z,6.34
2017-12-12T02:28:40.913Z,6.28
2017-12-12T02:29:54.779Z,6.2
2017-12-12T02:31:08.696Z,6.25
2017-12-12T02:32:22.790Z,6.15
2017-12-12T02:33:37.020Z,5.99
2017-12-12T02:34:50.851Z,6.02
2017-12-12T02:36:04.401Z,5.92
2017-12-12T02:37:18.926Z,5.84
2017-12-12T02:38:32.969Z,5.9
2017-12-12T02:39:46.729Z,5.83
2017-12-12T02:41:00.885Z,5.73
2017-12-12T02:42:14.757Z,5.91
2017-12-12T02:43:28.240Z,5.74
2017-12-12T02:44:41.769Z,5.76
2017-12-12T02:45:55.407Z,5.77
2017-12-12T02:47:09.312Z,5.67
2017-12-12T02:48:23.510Z,5.65
2017-12-12T02:49:37.103Z,5.65
2017-12-12T02:50:50.678Z,5.65
2017-12-12T02:52:04.379Z,5.62
2017-12-12T02:53:18.160Z,5.58
2017-12-12T02:54:32.275Z,5.59
2017-12-12T02:55:46.264Z,5.55
2017-12-12T02:57:00.229Z,5.54
2017-12-12T02:58:13.991Z,5.51
2017-12-12T02:59:27.487Z,5.55
2017-12-12T03:00:41.417Z,5.54
2017-12-12T03:01:54.928Z,5.54
2017-12-12T03:03:08.399Z,5.54
2017-12-12T03:04:21.978Z,5.41
2017-12-12T03:05:36.326Z,5.43
2017-12-12T03:06:49.759Z,5.49
2017-12-12T03:08:03.511Z,5.55
2017-12-12T03:09:17.026Z,5.43
2017-12-12T03:10:30.704Z,5.43
2017-12-12T03:11:44.622Z,5.43
2017-12-12T03:12:58.152Z,5.38
2017-12-12T03:14:11.610Z,5.25
2017-12-12T03:15:25.325Z,5.19
2017-12-12T03:16:38.782Z,5.18
2017-12-12T03:17:52.517Z,5
2017-12-12T03:19:06.080Z,5.02
2017-12-12T03:20:19.661Z,4.89
2017-12-12T03:21:33.831Z,4.74
2017-12-12T03:22:47.855Z,4.75
2017-12-12T03:24:01.966Z,4.64
2017-12-12T03:25:16.105Z,4.6
2017-12-12T03:26:29.573Z,4.64
2017-12-12T03:27:43.659Z,4.64
2017-12-12T03:28:57.499Z,4.63
2017-12-12T03:30:11.232Z,4.67
2017-12-12T03:31:24.831Z,4.82
2017-12-12T03:32:38.856Z,4.7
2017-12-12T03:33:52.985Z,4.63
2017-12-12T03:35:06.904Z,4.57
2017-12-12T03:36:20.448Z,4.57
2017-12-12T03:37:34.412Z,4.53
2017-12-12T03:38:48.812Z,4.52
2017-12-12T03:40:02.604Z,4.5
2017-12-12T03:41:16.089Z,4.52
2017-12-12T03:42:29.567Z,4.58
2017-12-12T03:43:43.262Z,4.58
2017-12-12T03:44:56.831Z,4.52
2017-12-12T03:46:10.327Z,4.5
2017-12-12T03:47:23.789Z,4.56
2017-12-12T03:48:37.680Z,4.56
2017-12-12T03:49:51.509Z,4.6
2017-12-12T03:51:05.499Z,4.53
2017-12-12T03:52:19.232Z,4.5
2017-12-12T03:53:33.077Z,4.39
2017-12-12T03:54:46.785Z,4.45
2017-12-12T03:56:00.405Z,4.48
2017-12-12T03:57:14.337Z,4.64
2017-12-12T03:58:27.823Z,4.52
2017-12-12T03:59:41.317Z,4.48
2017-12-12T04:00:55.052Z,4.52
2017-12-12T04:02:09.752Z,4.48
2017-12-12T04:03:23.445Z,4.52
2017-12-12T04:04:37.442Z,4.48
2017-12-12T04:05:50.976Z,4.46
2017-12-12T04:07:04.658Z,4.49
2017-12-12T04:08:18.308Z,4.46
2017-12-12T04:09:46.674Z,4.53
2017-12-12T04:11:00.169Z,4.46
2017-12-12T04:12:14.049Z,4.49
2017-12-12T04:13:27.580Z,4.52
2017-12-12T04:14:41.303Z,4.45
2017-12-12T04:15:55.354Z,4.52
2017-12-12T04:17:08.861Z,4.5
2017-12-12T04:18:22.600Z,4.6
2017-12-12T04:19:36.069Z,4.49
2017-12-12T04:20:49.528Z,4.6
2017-12-12T04:22:03.138Z,4.56
2017-12-12T04:23:16.913Z,4.48
2017-12-12T04:24:30.629Z,4.63
2017-12-12T04:25:44.424Z,4.45
2017-12-12T04:26:58.167Z,4.52
2017-12-12T04:28:11.983Z,4.48
2017-12-12T04:29:25.489Z,4.46
2017-12-12T04:30:40.056Z,4.53
2017-12-12T04:31:53.940Z,4.49
2017-12-12T04:33:07.843Z,5.13
2017-12-12T04:34:21.995Z,5.67
2017-12-12T04:35:36.038Z,5.74
2017-12-12T04:36:50.262Z,5.84
2017-12-12T04:38:04.169Z,6.06
2017-12-12T04:39:18.443Z,6.05
2017-12-12T04:40:32.712Z,5.88
2017-12-12T04:41:46.630Z,5.9
2017-12-12T04:43:00.320Z,5.83
2017-12-12T04:44:13.795Z,5.67
2017-12-12T04:45:27.269Z,5.62
2017-12-12T04:46:41.355Z,5.8
2017-12-12T04:47:54.880Z,6.17
2017-12-12T04:49:08.682Z,6.32
2017-12-12T04:50:22.176Z,6.26
2017-12-12T04:51:35.934Z,6.28
2017-12-12T04:52:49.705Z,6.15
2017-12-12T04:54:03.243Z,6.26
2017-12-12T04:55:17.543Z,6.19
2017-12-12T04:56:31.066Z,6.26
2017-12-12T04:57:45.276Z,6.25
2017-12-12T05:00:03.139Z,6.35
2017-12-12T05:01:16.903Z,6.38
2017-12-12T05:02:30.951Z,6.46
2017-12-12T05:03:44.528Z,6.47
2017-12-12T05:04:58.000Z,6.49
2017-12-12T05:06:11.453Z,6.02
2017-12-12T05:07:25.369Z,5.64
2017-12-12T05:08:38.880Z,5.49
2017-12-12T05:09:52.392Z,5.38
2017-12-12T05:11:06.071Z,5.25
2017-12-12T05:12:19.597Z,5.13
2017-12-12T05:13:33.898Z,5
2017-12-12T05:14:47.346Z,4.98
2017-12-12T05:16:01.436Z,4.98
2017-12-12T05:17:15.021Z,4.86
2017-12-12T05:18:28.610Z,4.92
2017-12-12T05:19:42.323Z,4.97
2017-12-12T05:20:56.088Z,4.9
2017-12-12T05:22:09.790Z,4.98
2017-12-12T05:23:23.505Z,4.95
2017-12-12T05:24:37.508Z,4.94
2017-12-12T05:25:52.048Z,4.87
2017-12-12T05:27:06.670Z,4.87
2017-12-12T05:28:20.178Z,4.89
2017-12-12T05:29:34.706Z,4.82
2017-12-12T05:30:48.359Z,4.87
2017-12-12T05:32:01.842Z,4.9
2017-12-12T05:33:15.692Z,4.89
2017-12-12T05:34:29.241Z,4.9
2017-12-12T05:35:42.841Z,4.95
2017-12-12T05:36:56.334Z,4.84
2017-12-12T05:38:10.132Z,4.79
2017-12-12T05:39:24.360Z,4.86
2017-12-12T05:40:38.859Z,4.83
2017-12-12T05:41:52.632Z,4.86
2017-12-12T05:43:06.103Z,4.87
2017-12-12T05:44:25.894Z,4.97
2017-12-12T05:45:39.495Z,4.92
2017-12-12T05:46:53.009Z,4.89
2017-12-12T05:48:06.797Z,4.79
2017-12-12T05:49:20.729Z,4.83
2017-12-12T05:50:34.218Z,4.92
2017-12-12T05:51:47.663Z,4.9
2017-12-12T05:53:01.790Z,5.01
2017-12-12T05:54:15.709Z,4.97
2017-12-12T05:55:29.262Z,4.94
2017-12-12T05:56:43.317Z,5.05
2017-12-12T05:57:57.088Z,5.12
2017-12-12T05:59:11.228Z,5.13
2017-12-12T06:00:24.895Z,5.05
2017-12-12T06:01:38.937Z,5.12
2017-12-12T06:02:52.392Z,5.15
2017-12-12T06:04:06.645Z,5.18
2017-12-12T06:05:21.615Z,5.05
2017-12-12T06:06:36.499Z,5.08
2017-12-12T06:07:50.902Z,5.15
2017-12-12T06:09:04.672Z,5.1
2017-12-12T06:10:19.090Z,5.12
2017-12-12T06:11:33.545Z,5.12
2017-12-12T06:12:47.727Z,5.08
2017-12-12T06:14:39.802Z,5.1
2017-12-12T06:15:54.125Z,5.1
2017-12-12T06:17:08.493Z,5.12
2017-12-12T06:18:22.104Z,5.22
2017-12-12T06:19:35.632Z,5.22
2017-12-12T06:20:50.038Z,5.19
2017-12-12T06:22:03.827Z,5.26
2017-12-12T06:23:18.179Z,5.22
2017-12-12T06:24:32.392Z,5.1
2017-12-12T06:25:46.946Z,5.18
2017-12-12T06:27:00.806Z,5.18
2017-12-12T06:28:14.872Z,5.2
2017-12-12T06:29:28.518Z,5.22
2017-12-12T06:30:43.691Z,5.23
2017-12-12T06:31:57.861Z,5.31
2017-12-12T06:33:11.670Z,5.23
2017-12-12T06:34:27.250Z,5.15
2017-12-12T06:35:42.043Z,5.23
2017-12-12T06:36:55.821Z,5.22
2017-12-12T06:38:09.646Z,5.23
2017-12-12T06:39:23.820Z,5.26
2017-12-12T06:40:38.726Z,5.26
2017-12-12T06:41:57.300Z,5.26
2017-12-12T06:43:13.064Z,5.26
2017-12-12T06:44:29.579Z,5.28
2017-12-12T06:45:44.289Z,5.2
2017-12-12T06:46:59.144Z,5.26
2017-12-12T06:48:14.390Z,5.25
2017-12-12T06:49:28.750Z,5.28
2017-12-12T06:50:43.699Z,5.26
2017-12-12T06:51:57.735Z,5.33
2017-12-12T06:53:12.863Z,5.28
2017-12-12T06:54:27.774Z,5.19
2017-12-12T06:55:42.327Z,5.25
2017-12-12T06:56:57.898Z,5.19
2017-12-12T06:58:11.526Z,5.2
2017-12-12T06:59:26.356Z,5.25
2017-12-12T07:00:39.908Z,5.2
2017-12-12T07:01:55.574Z,5.18
2017-12-12T07:03:10.584Z,5.25
2017-12-12T07:04:24.644Z,5.28
2017-12-12T07:05:38.491Z,5.26
2017-12-12T07:06:52.389Z,5.26
2017-12-12T07:08:06.148Z,5.26
2017-12-12T07:09:20.613Z,5.31
2017-12-12T07:10:35.511Z,5.28
2017-12-12T07:11:50.890Z,5.31
2017-12-12T07:13:05.768Z,5.38
2017-12-12T07:14:20.655Z,5.41
2017-12-12T07:15:34.512Z,5.4
2017-12-12T07:16:48.667Z,5.38
2017-12-12T07:18:03.181Z,5.4
2017-12-12T07:19:16.676Z,5.41
2017-12-12T07:20:30.159Z,5.46
2017-12-12T07:21:43.668Z,5.44
2017-12-12T07:22:57.173Z,5.46
2017-12-12T07:24:11.245Z,5.4
2017-12-12T07:25:24.978Z,5.41
2017-12-12T07:26:38.465Z,5.41
2017-12-12T07:27:52.940Z,5.41
2017-12-12T07:29:06.790Z,5.44
2017-12-12T07:30:21.282Z,5.46
2017-12-12T07:31:35.477Z,5.47
2017-12-12T07:32:52.487Z,5.47
2017-12-12T07:34:18.454Z,5.38
2017-12-12T07:35:37.424Z,5.38
2017-12-12T07:36:51.938Z,5.4
2017-12-12T07:38:06.280Z,5.36
2017-12-12T07:39:20.294Z,5.37
2017-12-12T07:40:34.904Z,5.41
2017-12-12T07:41:49.491Z,5.41
2017-12-12T07:43:03.439Z,5.29
2017-12-12T07:44:17.027Z,5.26
2017-12-12T07:45:31.334Z,5.28
2017-12-12T07:46:45.760Z,5.2
2017-12-12T07:47:59.520Z,5.28
2017-12-12T07:49:13.360Z,5.18
2017-12-12T07:50:27.300Z,5.22
2017-12-12T07:51:45.033Z,5.28
2017-12-12T07:53:06.406Z,5.23
2017-12-12T07:54:22.726Z,5.19
2017-12-12T07:55:38.294Z,5.22
2017-12-12T07:56:57.475Z,5.2
2017-12-12T07:58:15.123Z,5.26
2017-12-12T07:59:31.842Z,5.26
2017-12-12T08:00:50.291Z,5.25
2017-12-12T08:02:08.814Z,5.22
2017-12-12T08:03:25.057Z,5.18
2017-12-12T08:04:42.474Z,5.33
2017-12-12T08:05:58.415Z,5.29
2017-12-12T08:07:14.488Z,5.28
2017-12-12T08:08:29.801Z,5.26
2017-12-12T08:09:43.783Z,5.31
2017-12-12T08:10:57.776Z,5.29
2017-12-12T08:12:12.010Z,5.36
2017-12-12T08:13:26.152Z,5.34
2017-12-12T08:14:39.856Z,5.29
2017-12-12T08:15:53.655Z,5.31
2017-12-12T08:17:09.293Z,5.2
2017-12-12T08:18:23.404Z,5.2
2017-12-12T08:19:37.719Z,5.25
2017-12-12T08:20:51.622Z,5.12
2017-12-12T08:22:05.139Z,5.23
2017-12-12T08:23:19.240Z,5.19
2017-12-12T08:24:33.552Z,5.13
2017-12-12T08:25:48.022Z,5.1
2017-12-12T08:27:01.682Z,5.18
2017-12-12T08:28:15.602Z,5.12
2017-12-12T08:29:29.205Z,5.16
2017-12-12T08:30:42.989Z,5.15
2017-12-12T08:31:56.565Z,5.19
2017-12-12T08:33:10.262Z,5.22
2017-12-12T08:34:24.709Z,5.22
2017-12-12T08:35:39.262Z,5.22
2017-12-12T08:36:52.793Z,5.19
2017-12-12T08:38:06.397Z,5.26
2017-12-12T08:39:20.441Z,5.22
2017-12-12T08:40:34.719Z,5.28
2017-12-12T08:41:48.382Z,5.18
2017-12-12T08:43:02.268Z,5.28
2017-12-12T08:44:16.030Z,5.34
2017-12-12T08:45:29.813Z,5.29
2017-12-12T08:46:44.064Z,5.26
2017-12-12T08:47:57.803Z,5.23
2017-12-12T08:49:12.145Z,5.23
2017-12-12T08:50:26.292Z,5.28
2017-12-12T08:51:40.830Z,5.58
2017-12-12T08:52:55.218Z,5.54
2017-12-12T08:54:08.790Z,5.41
2017-12-12T08:55:22.733Z,5.47
2017-12-12T08:56:36.771Z,5.44
2017-12-12T08:57:51.331Z,5.54
2017-12-12T08:59:06.006Z,5.59
2017-12-12T09:00:20.507Z,5.64
2017-12-12T09:01:34.787Z,5.56
2017-12-12T09:02:52.496Z,5.77
2017-12-12T09:04:07.290Z,5.81
2017-12-12T09:05:21.409Z,5.77
2017-12-12T09:06:35.864Z,5.83
2017-12-12T09:07:49.975Z,5.73
2017-12-12T09:09:04.033Z,5.69
2017-12-12T09:10:19.146Z,5.8
2017-12-12T09:11:33.413Z,5.74
2017-12-12T09:12:47.374Z,5.8
2017-12-12T09:14:00.858Z,5.84
2017-12-12T09:15:14.519Z,5.84
2017-12-12T09:16:29.921Z,5.8
2017-12-12T09:17:44.615Z,5.88
2017-12-12T09:18:59.171Z,5.77
2017-12-12T09:20:12.883Z,5.73
2017-12-12T09:21:29.495Z,5.73
2017-12-12T09:22:43.379Z,5.77
2017-12-12T09:23:57.113Z,5.81
2017-12-12T09:25:11.140Z,5.88
2017-12-12T09:26:25.098Z,5.9
2017-12-12T09:27:38.947Z,5.8
2017-12-12T09:28:52.668Z,5.77
2017-12-12T09:30:06.478Z,5.87
2017-12-12T09:31:20.033Z,5.8
2017-12-12T09:32:34.050Z,5.79
2017-12-12T09:33:48.624Z,5.79
2017-12-12T09:35:02.362Z,5.77
2017-12-12T09:36:16.108Z,5.8
2017-12-12T09:37:30.358Z,5.8
2017-12-12T09:38:44.343Z,5.81
2017-12-12T09:39:58.217Z,5.72
2017-12-12T09:41:12.152Z,5.69
2017-12-12T09:42:26.597Z,5.8
2017-12-12T09:43:40.660Z,5.91
2017-12-12T09:44:54.351Z,5.87
2017-12-12T09:46:07.817Z,5.97
2017-12-12T09:47:21.631Z,5.91
2017-12-12T09:48:35.298Z,5.81
2017-12-12T09:49:48.899Z,5.88
2017-12-12T09:51:03.332Z,5.88
2017-12-12T09:52:17.884Z,5.81
2017-12-12T09:53:31.524Z,5.88
2017-12-12T09:54:45.715Z,5.76
2017-12-12T09:56:19.346Z,5.84
2017-12-12T09:57:35.082Z,5.8
2017-12-12T09:58:49.695Z,5.81
2017-12-12T10:00:04.511Z,5.83
2017-12-12T10:01:22.969Z,5.88
2017-12-12T10:02:43.396Z,5.92
2017-12-12T10:03:58.594Z,5.77
2017-12-12T10:05:13.130Z,5.84
2017-12-12T10:06:27.490Z,5.91
2017-12-12T10:07:42.298Z,5.84
2017-12-12T10:08:56.722Z,5.97
2017-12-12T10:10:11.408Z,5.91
2017-12-12T10:11:25.653Z,5.97
2017-12-12T10:12:41.409Z,6.01
2017-12-12T10:14:23.637Z,6.09
2017-12-12T10:17:21.407Z,6.06
2017-12-12T10:18:39.858Z,6.07
2017-12-12T10:19:53.637Z,5.92
2017-12-12T10:21:08.171Z,5.97
2017-12-12T10:22:21.653Z,5.83
2017-12-12T10:23:35.764Z,5.88
2017-12-12T10:24:49.305Z,5.84
2017-12-12T10:26:06.876Z,5.98
2017-12-12T10:27:26.736Z,5.83
2017-12-12T10:28:43.710Z,5.92
2017-12-12T10:30:01.618Z,5.97
2017-12-12T10:31:35.171Z,5.95
2017-12-12T10:33:00.277Z,5.98
2017-12-12T10:34:18.504Z,6.09
2017-12-12T10:35:32.208Z,6.09
2017-12-12T10:36:46.066Z,6.09
2017-12-12T10:37:59.930Z,6.29
2017-12-12T10:39:14.191Z,6.22
2017-12-12T10:40:30.405Z,6.2
2017-12-12T10:41:46.657Z,6.25
2017-12-12T10:43:21.364Z,6.19
2017-12-12T10:44:35.646Z,6.17
2017-12-12T10:45:53.715Z,6.29
2017-12-12T10:47:08.562Z,6.32
2017-12-12T10:48:23.289Z,6.32
2017-12-12T10:49:36.781Z,6.34
2017-12-12T10:50:50.729Z,6.29
2017-12-12T10:52:05.587Z,6.32
2017-12-12T10:53:34.744Z,6.41
2017-12-12T10:54:48.957Z,6.43
2017-12-12T10:56:06.357Z,6.52
2017-12-12T10:57:22.807Z,6.59
2017-12-12T10:58:37.127Z,6.59
2017-12-12T10:59:50.971Z,6.52
2017-12-12T11:01:04.609Z,6.56
2017-12-12T11:02:18.703Z,6.57
2017-12-12T11:03:47.079Z,6.57
2017-12-12T11:05:00.576Z,6.68
2017-12-12T11:06:14.133Z,6.82
2017-12-12T11:07:27.856Z,6.83
2017-12-12T11:08:42.087Z,6.82
2017-12-12T11:09:56.792Z,6.85
2017-12-12T11:11:12.541Z,6.85
2017-12-12T11:12:26.727Z,7.03
2017-12-12T11:13:40.523Z,6.97
2017-12-12T11:14:54.079Z,6.85
2017-12-12T11:16:07.703Z,6.83
2017-12-12T11:17:21.589Z,6.8
2017-12-12T11:18:35.925Z,6.89
2017-12-12T11:19:49.659Z,7.04
2017-12-12T11:21:03.143Z,6.96
2017-12-12T11:22:16.699Z,7.01
2017-12-12T11:23:30.473Z,7
2017-12-12T11:24:43.986Z,7
2017-12-12T11:25:57.557Z,7.07
2017-12-12T11:27:11.565Z,7
2017-12-12T11:28:25.378Z,7.04
2017-12-12T11:29:40.219Z,7.05
2017-12-12T11:30:54.602Z,6.96
2017-12-12T11:32:08.566Z,7.04
2017-12-12T11:33:22.606Z,7.01
2017-12-12T11:34:36.929Z,7.04
2017-12-12T11:35:50.940Z,7
2017-12-12T11:37:04.426Z,7.03
2017-12-12T11:38:18.336Z,7.21
2017-12-12T11:39:32.024Z,7.13
2017-12-12T11:40:47.378Z,7.01
2017-12-12T11:42:09.076Z,7.15
2017-12-12T11:43:23.054Z,7.31
2017-12-12T11:44:41.581Z,7.26
2017-12-12T11:45:57.845Z,7.36
2017-12-12T11:47:12.582Z,7.55
2017-12-12T11:48:26.499Z,7.48
2017-12-12T11:49:40.156Z,7.56
2017-12-12T11:50:53.870Z,7.61
2017-12-12T11:52:08.184Z,7.62
2017-12-12T11:53:23.710Z,7.48
2017-12-12T11:54:38.708Z,7.53
2017-12-12T11:55:53.090Z,7.29
2017-12-12T11:57:07.857Z,7.32
2017-12-12T11:58:22.608Z,7.29
2017-12-12T11:59:37.372Z,7.22
2017-12-12T12:00:51.651Z,7.32
2017-12-12T12:02:05.916Z,7.26
2017-12-12T12:03:19.478Z,7.15
2017-12-12T12:04:35.949Z,6.96
2017-12-12T12:05:58.221Z,7
2017-12-12T12:07:26.829Z,7.03
2017-12-12T12:08:43.128Z,7.05
2017-12-12T12:09:59.744Z,7.11
2017-12-12T12:11:14.506Z,7.08
2017-12-12T12:12:29.743Z,7.08
2017-12-12T12:13:43.564Z,7.04
2017-12-12T12:14:58.270Z,6.97
2017-12-12T12:16:12.716Z,6.87
2017-12-12T12:17:26.852Z,6.93
2017-12-12T12:18:42.302Z,6.93
2017-12-12T12:19:57.627Z,6.93
2017-12-12T12:21:12.137Z,6.82
2017-12-12T12:22:27.802Z,6.8
2017-12-12T12:23:44.575Z,6.78
2017-12-12T12:25:00.691Z,6.83
2017-12-12T12:26:27.211Z,6.82
2017-12-12T12:27:49.684Z,6.77
2017-12-12T12:29:24.320Z,6.72
2017-12-12T12:31:49.448Z,6.67
2017-12-12T12:34:49.853Z,6.74
2017-12-12T12:36:11.871Z,6.67
2017-12-12T12:37:41.932Z,6.6
2017-12-12T12:39:01.431Z,6.72
2017-12-12T12:40:19.978Z,6.74
2017-12-12T12:41:34.127Z,6.68
2017-12-12T12:42:48.064Z,6.75
2017-12-12T12:44:03.522Z,6.68
2017-12-12T12:45:18.852Z,6.7
2017-12-12T12:46:36.584Z,6.57
2017-12-12T12:47:52.127Z,6.67
2017-12-12T12:49:07.130Z,6.6
2017-12-12T12:50:20.971Z,6.56
2017-12-12T12:51:35.390Z,6.59
2017-12-12T12:52:48.944Z,6.72
2017-12-12T12:54:03.250Z,6.68
2017-12-12T12:55:17.843Z,6.68
2017-12-12T12:56:35.815Z,6.74
2017-12-12T12:57:49.535Z,6.72
2017-12-12T12:59:04.221Z,6.83
2017-12-12T13:00:19.455Z,6.74
2017-12-12T13:01:33.815Z,6.8
2017-12-12T13:02:50.223Z,6.77
2017-12-12T13:04:05.905Z,6.74
2017-12-12T13:05:20.007Z,6.82
2017-12-12T13:06:34.749Z,6.82
2017-12-12T13:07:50.425Z,6.87
2017-12-12T13:09:06.995Z,6.86
2017-12-12T13:10:27.972Z,6.86
2017-12-12T13:12:03.042Z,6.89
2017-12-12T13:13:26.911Z,6.86
2017-12-12T13:19:03.077Z,6.8
2017-12-12T13:20:20.047Z,6.92
2017-12-12T13:21:35.241Z,6.93
2017-12-12T13:22:50.652Z,6.89
2017-12-12T13:24:05.946Z,6.82
2017-12-12T13:25:23.490Z,6.85
2017-12-12T13:26:44.283Z,6.87
2017-12-12T13:28:03.122Z,6.71
2017-12-12T13:29:18.996Z,6.71
2017-12-12T13:30:33.003Z,6.75
2017-12-12T13:31:47.517Z,6.78
2017-12-12T13:33:03.123Z,6.77
2017-12-12T13:34:17.304Z,6.8
2017-12-12T13:35:30.943Z,6.8
2017-12-12T13:36:44.686Z,6.74
2017-12-12T13:37:58.644Z,6.78
2017-12-12T13:39:46.355Z,6.74
2017-12-12T13:44:21.803Z,6.82
2017-12-12T13:47:26.436Z,6.85
2017-12-12T13:48:41.106Z,6.9
2017-12-12T13:49:57.697Z,7
2017-12-12T13:51:14.851Z,6.97
2017-12-12T13:52:30.640Z,6.95
2017-12-12T13:53:48.579Z,7
2017-12-12T13:55:03.446Z,7.04
2017-12-12T13:56:18.393Z,6.82
2017-12-12T13:57:34.367Z,6.87
2017-12-12T13:58:49.048Z,6.9
2017-12-12T14:00:03.070Z,6.78
2017-12-12T14:01:17.809Z,6.75
2017-12-12T14:02:31.853Z,6.7
2017-12-12T14:03:46.674Z,6.71
2017-12-12T14:05:00.682Z,6.65
2017-12-12T14:06:14.895Z,6.65
2017-12-12T14:07:28.617Z,6.67
2017-12-12T14:08:42.311Z,6.59
2017-12-12T14:09:55.838Z,6.7
2017-12-12T14:11:09.635Z,6.57
2017-12-12T14:12:23.510Z,6.5
2017-12-12T14:13:37.342Z,6.6
2017-12-12T14:14:51.927Z,6.56
2017-12-12T14:16:06.564Z,6.56
2017-12-12T14:17:20.163Z,6.57
2017-12-12T14:18:34.285Z,6.52
2017-12-12T14:19:49.103Z,6.46
2017-12-12T14:21:03.478Z,6.44
2017-12-12T14:22:24.593Z,6.52
2017-12-12T14:23:41.058Z,6.56
2017-12-12T14:24:56.613Z,6.53
2017-12-12T14:26:11.193Z,6.52
2017-12-12T14:27:26.031Z,6.59
2017-12-12T14:28:41.734Z,6.46
2017-12-12T14:29:57.201Z,6.44
2017-12-12T14:31:14.921Z,6.52
2017-12-12T14:32:32.635Z,6.49
2017-12-12T14:33:48.592Z,6.39
2017-12-12T14:35:05.114Z,6.52
2017-12-12T14:36:21.035Z,6.52
2017-12-12T14:37:39.481Z,6.53
2017-12-12T14:38:53.626Z,6.44
2017-12-12T14:40:10.540Z,6.41
2017-12-12T14:41:27.454Z,6.38
2017-12-12T14:42:41.189Z,6.28
2017-12-12T14:43:54.802Z,6.36
2017-12-12T14:45:08.755Z,6.29
2017-12-12T14:46:31.678Z,6.32
2017-12-12T14:48:09.633Z,6.29
2017-12-12T14:49:24.443Z,6.32
2017-12-12T14:50:38.630Z,6.32
2017-12-12T14:51:53.995Z,6.26
2017-12-12T14:53:24.470Z,6.28
2017-12-12T14:55:48.974Z,6.35
2017-12-12T14:58:30.373Z,6.34
2017-12-12T14:59:51.095Z,6.32
2017-12-12T15:01:06.857Z,6.29
2017-12-12T15:02:24.982Z,6.25
2017-12-12T15:03:50.694Z,6.28
2017-12-12T15:05:05.463Z,6.29
2017-12-12T15:06:21.829Z,6.28
2017-12-12T15:07:35.611Z,6.25
2017-12-12T15:08:49.596Z,6.29
2017-12-12T15:10:03.699Z,6.35
2017-12-12T15:11:17.294Z,6.29
2017-12-12T15:12:31.256Z,6.29
2017-12-12T15:13:45.543Z,6.19
2017-12-12T15:14:59.074Z,6.34
2017-12-12T15:16:13.059Z,6.28
2017-12-12T15:17:27.320Z,6.17
2017-12-12T15:18:42.160Z,6.16
2017-12-12T15:19:56.863Z,6.16
2017-12-12T15:21:11.026Z,6.17
2017-12-12T15:22:26.312Z,6.28
2017-12-12T15:23:41.084Z,6.25
2017-12-12T15:24:55.364Z,6.2
2017-12-12T15:26:10.123Z,6.26
2017-12-12T15:27:24.582Z,6.25
2017-12-12T15:28:38.101Z,6.26
2017-12-12T15:29:52.218Z,6.26
2017-12-12T15:31:05.929Z,6.13
2017-12-12T15:32:20.154Z,6.19
2017-12-12T15:33:34.074Z,6.17
2017-12-12T15:34:48.127Z,6.19
2017-12-12T15:36:02.405Z,6.2
2017-12-12T15:37:20.981Z,6.2
2017-12-12T15:38:49.800Z,6.17
2017-12-12T15:40:04.172Z,6.26
2017-12-12T15:41:24.503Z,6.1
2017-12-12T15:42:44.524Z,6.1
2017-12-12T15:44:14.081Z,6.17
2017-12-12T15:45:29.918Z,6.12
2017-12-12T15:52:06.609Z,6.05
2017-12-12T15:53:21.108Z,6.02
2017-12-12T15:54:39.814Z,6.05
2017-12-12T15:55:55.907Z,6.05
2017-12-12T15:57:12.610Z,6.07
2017-12-12T15:58:28.021Z,6.05
2017-12-12T15:59:45.053Z,6.06
2017-12-12T16:01:02.994Z,6.06
2017-12-12T16:02:25.528Z,5.91
2017-12-12T16:03:58.161Z,5.87
2017-12-12T16:05:17.800Z,5.79
2017-12-12T16:07:04.773Z,5.9
2017-12-12T16:10:22.795Z,5.88
2017-12-12T16:15:52.478Z,5.87
2017-12-12T16:22:05.175Z,5.76
2017-12-12T16:25:15.230Z,5.81
2017-12-12T16:27:05.862Z,5.69
2017-12-12T16:28:21.736Z,5.64
2017-12-12T16:29:35.935Z,5.7
2017-12-12T16:30:50.831Z,5.55
2017-12-12T16:32:06.786Z,5.55
2017-12-12T16:33:47.341Z,5.51
2017-12-12T16:35:16.802Z,5.55
2017-12-12T16:36:36.575Z,5.41
2017-12-12T16:37:55.035Z,5.47
2017-12-12T16:39:09.883Z,5.41
2017-12-12T16:40:23.976Z,5.41
2017-12-12T16:41:39.416Z,5.29
2017-12-12T16:42:53.442Z,5.28
2017-12-12T16:44:07.273Z,5.26
2017-12-12T16:45:21.563Z,5.22
2017-12-12T16:46:35.744Z,5.18
2017-12-12T16:47:49.511Z,5.19
2017-12-12T16:49:04.129Z,5.18
2017-12-12T16:50:17.849Z,5.12
2017-12-12T16:51:31.776Z,5.07
2017-12-12T16:52:45.718Z,5.1
2017-12-12T16:54:01.414Z,5.08
2017-12-12T16:55:16.128Z,5.1
2017-12-12T16:56:31.057Z,5.07
2017-12-12T16:57:45.579Z,5.02
2017-12-12T16:59:00.189Z,4.95
2017-12-12T17:00:24.707Z,4.98
2017-12-12T17:01:39.559Z,4.86
2017-12-12T17:02:55.152Z,4.9
2017-12-12T17:04:11.559Z,4.84
2017-12-12T17:05:27.380Z,4.84
2017-12-12T17:06:42.023Z,4.83
2017-12-12T17:07:56.587Z,4.79
2017-12-12T17:09:11.218Z,4.78
2017-12-12T17:10:32.159Z,4.9
2017-12-12T17:11:50.823Z,4.83
2017-12-12T17:13:05.430Z,4.89
2017-12-12T17:14:20.121Z,4.89
2017-12-12T17:15:34.423Z,4.82
2017-12-12T17:16:48.947Z,4.95
2017-12-12T17:18:04.354Z,4.94
2017-12-12T17:19:19.232Z,4.98
2017-12-12T17:20:33.925Z,5.02
2017-12-12T17:21:48.289Z,5
2017-12-12T17:23:02.515Z,5.05
2017-12-12T17:24:16.358Z,5.02